Jaguarari, Brazil
Current Conditions -  °F | °C
As of 12:00 AM on Wednesday 26 Nov 2014 (Local Time) from SBPL Reporting Station
Clear Clear  
Wind Chill: 82°   Ceiling: Unl
Heat Index: 85°   Visibility: 6mi
Dew Point: 66°   Wind: 9mph
Humidity: 58%   Direction: 150°SSE
Pressure: 29.88"   Gusts: NA
Location:  10.26°S, 40.2°W
Report Text: SBPL 260300Z 15008KT CAVOK 28/19 Q1012
Loading
Personal Weather Stations






























Interactive Weather Map New forecast layout! Learn more

10-Day Weather Forecast

Advertisements
Track Severe Weather on mobile